Silver Shadow — C6FN6 — position and weather

sailwx.info

Track history (hours):
 
Tides and Currents Weather Stations Pressure Air Temp Water Temp Dewpoint Dewpoint Depression Visibility Wind Speed Wind Dir Waves Ship Positions

Silver Shadow

Operator: V Ships Leisure SAM

Last reported at 2015-Jul-31 20:31 UTC. Time now 2015-Aug-02 18:25 UTC.
Position N 51°09' W 128°17'.

Length 186 m; draft 6.1 m.

Type: Passenger vessel. MMSI: 308628000.

Date/timePositionNaut miles runAvg speedWind from/ knotsBaromVisibWave heightAir tempDewpointWater temp
2015-Jul-31 20:31N 51°09' W 128°17'1616.3
2015-Jul-31 19:33N 51°01' W 127°55'1515.0
2015-Jul-31 18:33N 50°53' W 127°35'1616.4
2015-Jul-31 17:33N 50°46' W 127°12'1715.6
2015-Jul-31 16:29N 50°38' W 126°48'2813.9
2015-Jul-31 14:29N 50°28' W 126°07'3014.7
2015-Jul-31 12:26N 50°16' W 125°24'1212.8
2015-Jul-31 11:32N 50°06' W 125°17'1010.6
2015-Jul-31 10:33N 49°57' W 125°09'9 9.4
2015-Jul-31 09:33N 49°50' W 124°58'9 9.5
2015-Jul-31 08:33N 49°44' W 124°48'9 9.2
2015-Jul-31 07:33N 49°37' W 124°38'9 9.5
2015-Jul-31 06:33N 49°30' W 124°29'10 9.8
2015-Jul-31 05:33N 49°25' W 124°15'1010.2
2015-Jul-31 04:33N 49°23' W 124°00'10 9.9
2015-Jul-31 03:33N 49°21' W 123°45'1010.3
2015-Jul-31 02:33N 49°19' W 123°30'1010.4
2015-Jul-31 01:33N 49°19' W 123°14'5 4.9
2015-Jul-31 00:32N 49°17' W 123°07'0 0.0
2015-Jul-30 23:32N 49°17' W 123°07'0 0.0
2015-Jul-30 22:32N 49°17' W 123°07'0 0.0
2015-Jul-30 21:32N 49°17' W 123°07'0 0.0
2015-Jul-30 20:32N 49°17' W 123°07'0 0.0
2015-Jul-30 19:32N 49°17' W 123°07'0 0.0
2015-Jul-30 18:25N 49°17' W 123°07'0 0.0
2015-Jul-30 17:32N 49°17' W 123°07'0 0.0
2015-Jul-30 16:32N 49°17' W 123°07'0 0.0
2015-Jul-30 15:31N 49°17' W 123°07'0 0.0
2015-Jul-30 14:31N 49°17' W 123°07'4 3.7
2015-Jul-30 13:33N 49°19' W 123°12'1514.9
2015-Jul-30 12:33N 49°19' W 123°34'1515.0
2015-Jul-30 11:33N 49°21' W 123°57'1514.8
2015-Jul-30 10:33N 49°25' W 124°19'1514.6
2015-Jul-30 09:33N 49°35' W 124°36'1414.3
2015-Jul-30 08:33N 49°45' W 124°52'1515.4
2015-Jul-30 07:33N 49°56' W 125°08'1614.9
2015-Jul-30 06:30N 50°09' W 125°22'10 9.9
2015-Jul-30 05:32N 50°19' W 125°25'5412.8
2015-Jul-30 01:18N 50°37' W 126°46'2413.7
2015-Jul-29 23:33N 50°48' W 127°19'1413.7
2015-Jul-29 22:33N 50°54' W 127°38'1413.7
2015-Jul-29 21:33N 51°02' W 127°57'48111.7
2015-Jul-28 04:34N 57°58' W 134°52'1716.6
2015-Jul-28 03:34N 58°15' W 134°59'1717.1
2015-Jul-28 02:33N 58°31' W 135°04'1716.9
2015-Jul-28 01:32N 58°48' W 135°11'26 1.6
2015-Jul-27 09:27N 58°25' W 134°49'1613.6
2015-Jul-27 08:18N 58°12' W 134°31'811.0
2015-Jul-27 07:33N 58°13' W 134°15'7 6.7
2015-Jul-27 06:34N 58°18' W 134°24'0 0.0
2015-Jul-27 05:33N 58°18' W 134°24'0 0.0
2015-Jul-27 04:33N 58°18' W 134°24'0 0.0
2015-Jul-27 03:33N 58°18' W 134°24'0 0.0
2015-Jul-27 02:33N 58°18' W 134°24'0 0.0
2015-Jul-27 01:33N 58°18' W 134°24'0 0.0
2015-Jul-27 00:33N 58°18' W 134°24'0 0.0
2015-Jul-26 23:33N 58°18' W 134°24'0 0.0
2015-Jul-26 22:33N 58°18' W 134°24'0 0.0
2015-Jul-26 21:33N 58°18' W 134°24'0 0.0
2015-Jul-26 20:33N 58°18' W 134°24'0 0.0
2015-Jul-26 19:33N 58°18' W 134°24'0 0.0
2015-Jul-26 18:33N 58°18' W 134°24'0 0.0
2015-Jul-26 17:33N 58°18' W 134°24'0 0.0
2015-Jul-26 16:33N 58°18' W 134°24'0 0.0
2015-Jul-26 15:33N 58°18' W 134°24'2 2.3
2015-Jul-26 14:33N 58°16' W 134°21'1514.7
2015-Jul-26 13:33N 58°04' W 134°05'189 5.5
2015-Jul-25 03:19N 59°17' W 139°41'  
Track history (hours):
 
Tides and Currents Weather Stations Pressure Air Temp Water Temp Dewpoint Dewpoint Depression Visibility Wind Speed Wind Dir Waves Ship Positions

Silver Shadow

Operator: V Ships Leisure SAM

Last reported at 2015-Jul-31 20:31 UTC. Time now 2015-Aug-02 18:25 UTC.
Position N 51°09' W 128°17'.

Length 186 m; draft 6.1 m.

Type: Passenger vessel. MMSI: 308628000.

Date/timePositionNaut miles runAvg speedWind from/ knotsBaromVisibWave heightAir tempDewpointWater temp
2015-Jul-31 20:31N 51°09' W 128°17'1616.3
2015-Jul-31 19:33N 51°01' W 127°55'1515.0
2015-Jul-31 18:33N 50°53' W 127°35'1616.4
2015-Jul-31 17:33N 50°46' W 127°12'1715.6
2015-Jul-31 16:29N 50°38' W 126°48'2813.9
2015-Jul-31 14:29N 50°28' W 126°07'3014.7
2015-Jul-31 12:26N 50°16' W 125°24'1212.8
2015-Jul-31 11:32N 50°06' W 125°17'1010.6
2015-Jul-31 10:33N 49°57' W 125°09'9 9.4
2015-Jul-31 09:33N 49°50' W 124°58'9 9.5
2015-Jul-31 08:33N 49°44' W 124°48'9 9.2
2015-Jul-31 07:33N 49°37' W 124°38'9 9.5
2015-Jul-31 06:33N 49°30' W 124°29'10 9.8
2015-Jul-31 05:33N 49°25' W 124°15'1010.2
2015-Jul-31 04:33N 49°23' W 124°00'10 9.9
2015-Jul-31 03:33N 49°21' W 123°45'1010.3
2015-Jul-31 02:33N 49°19' W 123°30'1010.4
2015-Jul-31 01:33N 49°19' W 123°14'5 4.9
2015-Jul-31 00:32N 49°17' W 123°07'0 0.0
2015-Jul-30 23:32N 49°17' W 123°07'0 0.0
2015-Jul-30 22:32N 49°17' W 123°07'0 0.0
2015-Jul-30 21:32N 49°17' W 123°07'0 0.0
2015-Jul-30 20:32N 49°17' W 123°07'0 0.0
2015-Jul-30 19:32N 49°17' W 123°07'0 0.0
2015-Jul-30 18:25N 49°17' W 123°07'0 0.0
2015-Jul-30 17:32N 49°17' W 123°07'0 0.0
2015-Jul-30 16:32N 49°17' W 123°07'0 0.0
2015-Jul-30 15:31N 49°17' W 123°07'0 0.0
2015-Jul-30 14:31N 49°17' W 123°07'4 3.7
2015-Jul-30 13:33N 49°19' W 123°12'1514.9
2015-Jul-30 12:33N 49°19' W 123°34'1515.0
2015-Jul-30 11:33N 49°21' W 123°57'1514.8
2015-Jul-30 10:33N 49°25' W 124°19'1514.6
2015-Jul-30 09:33N 49°35' W 124°36'1414.3
2015-Jul-30 08:33N 49°45' W 124°52'1515.4
2015-Jul-30 07:33N 49°56' W 125°08'1614.9
2015-Jul-30 06:30N 50°09' W 125°22'10 9.9
2015-Jul-30 05:32N 50°19' W 125°25'5412.8
2015-Jul-30 01:18N 50°37' W 126°46'2413.7
2015-Jul-29 23:33N 50°48' W 127°19'1413.7
2015-Jul-29 22:33N 50°54' W 127°38'1413.7
2015-Jul-29 21:33N 51°02' W 127°57'48111.7
2015-Jul-28 04:34N 57°58' W 134°52'1716.6
2015-Jul-28 03:34N 58°15' W 134°59'1717.1
2015-Jul-28 02:33N 58°31' W 135°04'1716.9
2015-Jul-28 01:32N 58°48' W 135°11'26 1.6
2015-Jul-27 09:27N 58°25' W 134°49'1613.6
2015-Jul-27 08:18N 58°12' W 134°31'811.0
2015-Jul-27 07:33N 58°13' W 134°15'7 6.7
2015-Jul-27 06:34N 58°18' W 134°24'0 0.0
2015-Jul-27 05:33N 58°18' W 134°24'0 0.0
2015-Jul-27 04:33N 58°18' W 134°24'0 0.0
2015-Jul-27 03:33N 58°18' W 134°24'0 0.0
2015-Jul-27 02:33N 58°18' W 134°24'0 0.0
2015-Jul-27 01:33N 58°18' W 134°24'0 0.0
2015-Jul-27 00:33N 58°18' W 134°24'0 0.0
2015-Jul-26 23:33N 58°18' W 134°24'0 0.0
2015-Jul-26 22:33N 58°18' W 134°24'0 0.0
2015-Jul-26 21:33N 58°18' W 134°24'0 0.0
2015-Jul-26 20:33N 58°18' W 134°24'0 0.0
2015-Jul-26 19:33N 58°18' W 134°24'0 0.0
2015-Jul-26 18:33N 58°18' W 134°24'0 0.0
2015-Jul-26 17:33N 58°18' W 134°24'0 0.0
2015-Jul-26 16:33N 58°18' W 134°24'0 0.0
2015-Jul-26 15:33N 58°18' W 134°24'2 2.3
2015-Jul-26 14:33N 58°16' W 134°21'1514.7
2015-Jul-26 13:33N 58°04' W 134°05'189 5.5
2015-Jul-25 03:19N 59°17' W 139°41'  

Dump ship's entire track history